createdAt,value
2023-02-19T00:00:53.925Z,100697.91
2023-02-19T00:04:01.366Z,100677.94
2023-02-19T00:07:04.113Z,100684.25
2023-02-19T00:10:07.436Z,100680.75
2023-02-19T00:13:10.261Z,100675.38
2023-02-19T00:16:16.106Z,100668.25
2023-02-19T00:19:22.021Z,100654.69
2023-02-19T00:22:24.992Z,100641.22
2023-02-19T00:25:27.720Z,100669.13
2023-02-19T00:28:30.517Z,100654.59
2023-02-19T00:31:35.090Z,100653.66
2023-02-19T00:34:39.238Z,100657.28
2023-02-19T00:37:42.149Z,100650.03
2023-02-19T00:40:44.883Z,100649.34
2023-02-19T00:43:48.843Z,100660.44
2023-02-19T00:46:51.568Z,100657.41
2023-02-19T00:49:55.711Z,100663.91
2023-02-19T00:52:58.409Z,100645.88
2023-02-19T00:56:01.158Z,100652.13
2023-02-19T00:59:04.142Z,100642.25
2023-02-19T01:02:06.893Z,100645.19
2023-02-19T01:05:10.950Z,100645.19
2023-02-19T01:08:13.974Z,100643.44
2023-02-19T01:11:23.080Z,100647.97
2023-02-19T01:14:25.808Z,100650.59
2023-02-19T01:17:28.812Z,100649.72
2023-02-19T01:20:32.985Z,100644.56
2023-02-19T01:23:36.243Z,100654.97
2023-02-19T01:26:38.992Z,100661.44
2023-02-19T01:29:41.850Z,100648.09
2023-02-19T01:32:44.549Z,100627.19
2023-02-19T01:35:48.558Z,100625.31
2023-02-19T01:38:51.417Z,100636.09
2023-02-19T01:41:54.156Z,100623.66
2023-02-19T01:45:22.011Z,100616.72
2023-02-19T01:48:28.452Z,100631.72
2023-02-19T01:51:35.760Z,100626.47
2023-02-19T01:54:42.053Z,100629.31
2023-02-19T01:57:47.916Z,100614.81
2023-02-19T02:00:51.789Z,100608.44
2023-02-19T02:03:54.943Z,100602.22
2023-02-19T02:07:00.804Z,100620.31
2023-02-19T02:10:21.460Z,100598.97
2023-02-19T02:13:24.559Z,100598.06
2023-02-19T02:16:35.197Z,100611.69
2023-02-19T02:20:00.616Z,100609.03
2023-02-19T02:23:14.835Z,100599.19
2023-02-19T02:26:26.790Z,100592.09
2023-02-19T02:30:06.089Z,100598.06
2023-02-19T02:33:21.232Z,100593.91
2023-02-19T02:36:28.423Z,100601.22
2023-02-19T02:39:32.726Z,100602.03
2023-02-19T02:42:35.603Z,100605.81
2023-02-19T02:45:39.864Z,100598.56
2023-02-19T02:48:53.789Z,100590.50
2023-02-19T02:51:58.210Z,100588.56
2023-02-19T02:55:08.607Z,100588.50
2023-02-19T02:58:13.571Z,100586.84
2023-02-19T03:01:37.676Z,100582.41
2023-02-19T03:05:06.349Z,100569.09
2023-02-19T03:08:13.448Z,100584.28
2023-02-19T03:11:33.596Z,100575.06
2023-02-19T03:14:59.350Z,100565.06
2023-02-19T03:18:22.074Z,100557.97
2023-02-19T03:21:28.531Z,100563.19
2023-02-19T03:24:53.801Z,100559.75
2023-02-19T03:27:58.578Z,100569.75
2023-02-19T03:31:02.183Z,100556.22
2023-02-19T03:34:08.117Z,100561.63
2023-02-19T03:37:17.305Z,100575.19
2023-02-19T03:40:20.224Z,100562.41
2023-02-19T03:43:28.137Z,100531.78
2023-02-19T03:46:37.540Z,100536.53
2023-02-19T03:49:47.857Z,100540.16
2023-02-19T03:53:00.548Z,100510.25
2023-02-19T03:56:10.092Z,100552.72
2023-02-19T03:59:17.985Z,100549.28
2023-02-19T04:02:30.035Z,100550.94
2023-02-19T04:05:36.777Z,100563.59
2023-02-19T04:08:43.877Z,100568.03
2023-02-19T04:11:47.097Z,100567.06
2023-02-19T04:14:54.503Z,100561.00
2023-02-19T04:18:01.943Z,100580.53
2023-02-19T04:21:07.176Z,100591.31
2023-02-19T04:24:15.512Z,100591.53
2023-02-19T04:27:18.908Z,100591.38
2023-02-19T04:30:22.933Z,100571.47
2023-02-19T04:33:25.870Z,100586.84
2023-02-19T04:36:28.530Z,100585.97
2023-02-19T04:39:33.052Z,100578.78
2023-02-19T04:42:35.809Z,100585.22
2023-02-19T04:45:38.674Z,100575.94
2023-02-19T04:48:43.013Z,100570.59
2023-02-19T04:51:45.685Z,100565.50
2023-02-19T04:54:49.803Z,100588.00
2023-02-19T04:57:52.462Z,100598.75
2023-02-19T05:00:55.560Z,100606.81
2023-02-19T05:03:58.194Z,100616.91
2023-02-19T05:07:01.936Z,100600.69
2023-02-19T05:10:06.700Z,100607.78
2023-02-19T05:13:09.447Z,100607.78
2023-02-19T05:16:16.003Z,100606.75
2023-02-19T05:19:18.732Z,100623.16
2023-02-19T05:22:21.434Z,100609.66
2023-02-19T05:25:25.424Z,100599.81
2023-02-19T05:28:29.577Z,100603.47
2023-02-19T05:31:33.689Z,100600.06
2023-02-19T05:34:36.579Z,100596.53
2023-02-19T05:37:39.243Z,100603.66
2023-02-19T05:40:43.906Z,100638.00
2023-02-19T05:43:48.033Z,100633.75
2023-02-19T05:46:50.713Z,100622.16
2023-02-19T05:49:53.374Z,100623.97
2023-02-19T05:52:56.088Z,100607.03
2023-02-19T05:56:00.581Z,100624.22
2023-02-19T05:59:06.733Z,100618.91
2023-02-19T06:02:11.118Z,100619.91
2023-02-19T06:05:14.445Z,100625.53
2023-02-19T06:08:17.339Z,100640.81
2023-02-19T06:11:22.002Z,100650.91
2023-02-19T06:14:24.897Z,100659.91
2023-02-19T06:17:27.618Z,100676.31
2023-02-19T06:20:31.197Z,100668.25
2023-02-19T06:23:34.505Z,100677.19
2023-02-19T06:26:39.254Z,100682.66
2023-02-19T06:29:41.937Z,100689.91
2023-02-19T06:32:44.606Z,100696.19
2023-02-19T06:35:48.185Z,100693.44
2023-02-19T06:38:51.203Z,100700.53
2023-02-19T06:41:57.326Z,100707.88
2023-02-19T06:45:00.016Z,100704.09
2023-02-19T06:48:03.415Z,100698.66
2023-02-19T06:51:06.446Z,100708.66
2023-02-19T06:54:09.384Z,100709.50
2023-02-19T06:57:13.408Z,100710.38
2023-02-19T07:00:16.720Z,100707.56
2023-02-19T07:03:19.828Z,100712.97
2023-02-19T07:06:24.028Z,100723.72
2023-02-19T07:09:28.483Z,100724.31
2023-02-19T07:12:32.516Z,100735.94
2023-02-19T07:15:35.479Z,100743.91
2023-02-19T07:18:38.900Z,100730.22
2023-02-19T07:21:42.351Z,100738.34
2023-02-19T07:24:47.580Z,100746.31
2023-02-19T07:27:51.880Z,100733.66
2023-02-19T07:30:54.807Z,100740.91
2023-02-19T07:33:57.624Z,100746.66
2023-02-19T07:37:00.289Z,100724.22
2023-02-19T07:40:03.927Z,100735.97
2023-02-19T07:43:07.962Z,100738.69
2023-02-19T07:46:13.336Z,100745.03
2023-02-19T07:49:16.066Z,100745.94
2023-02-19T07:52:18.789Z,100754.69
2023-02-19T07:55:21.456Z,100749.66
2023-02-19T07:58:25.522Z,100746.44
2023-02-19T08:01:42.148Z,100745.88
2023-02-19T08:04:45.737Z,100752.22
2023-02-19T08:07:48.759Z,100744.84
2023-02-19T08:11:09.040Z,100745.53
2023-02-19T08:14:13.262Z,100755.94
2023-02-19T08:17:15.974Z,100750.25
2023-02-19T08:20:18.725Z,100751.34
2023-02-19T08:23:21.844Z,100730.53
2023-02-19T08:26:24.503Z,100722.44
2023-02-19T08:29:28.645Z,100762.88
2023-02-19T08:32:31.283Z,100757.66
2023-02-19T08:35:36.673Z,100755.91
2023-02-19T08:38:39.614Z,100761.31
2023-02-19T08:41:42.291Z,100762.72
2023-02-19T08:44:46.318Z,100763.91
2023-02-19T08:47:49.083Z,100759.97
2023-02-19T08:50:55.916Z,100767.72
2023-02-19T08:53:58.653Z,100771.81
2023-02-19T08:57:02.110Z,100773.00
2023-02-19T09:00:07.717Z,100748.25
2023-02-19T09:03:10.660Z,100802.34
2023-02-19T09:06:17.295Z,100794.81
2023-02-19T09:09:20.311Z,100807.06
2023-02-19T09:12:23.136Z,100808.31
2023-02-19T09:15:29.336Z,100807.94
2023-02-19T09:18:32.561Z,100795.44
2023-02-19T09:21:35.327Z,100823.19
2023-02-19T09:24:38.005Z,100819.19
2023-02-19T09:27:40.693Z,100812.94
2023-02-19T09:30:44.771Z,100819.31
2023-02-19T09:33:48.789Z,100830.19
2023-02-19T09:36:51.476Z,100825.75
2023-02-19T09:39:54.293Z,100817.72
2023-02-19T09:42:56.975Z,100826.75
2023-02-19T09:46:04.458Z,100821.66
2023-02-19T09:49:12.645Z,100836.78
2023-02-19T09:52:23.881Z,100843.88
2023-02-19T09:55:32.751Z,100838.56
2023-02-19T09:58:37.210Z,100851.16
2023-02-19T10:01:42.604Z,100834.31
2023-02-19T10:04:47.491Z,100827.53
2023-02-19T10:07:53.422Z,100835.09
2023-02-19T10:10:56.213Z,100832.25
2023-02-19T10:14:09.183Z,100823.56
2023-02-19T10:17:23.209Z,100834.13
2023-02-19T10:20:27.982Z,100857.63
2023-02-19T10:23:31.348Z,100873.81
2023-02-19T10:26:36.559Z,100873.28
2023-02-19T10:29:39.359Z,100870.69
2023-02-19T10:33:00.262Z,100888.50
2023-02-19T10:36:07.338Z,100886.59
2023-02-19T10:39:39.308Z,100904.47
2023-02-19T10:42:47.403Z,100891.88
2023-02-19T10:45:52.889Z,100909.19
2023-02-19T10:48:59.358Z,100907.34
2023-02-19T10:52:11.066Z,100913.63
2023-02-19T10:55:25.639Z,100901.03
2023-02-19T10:58:28.584Z,100898.53
2023-02-19T11:01:31.263Z,100903.44
2023-02-19T11:04:38.404Z,100921.78
2023-02-19T11:07:47.436Z,100928.31
2023-02-19T11:10:51.004Z,100913.25
2023-02-19T11:13:55.509Z,100917.97
2023-02-19T11:17:00.328Z,100924.47
2023-02-19T11:20:09.165Z,100930.72
2023-02-19T11:23:17.784Z,100872.81
2023-02-19T11:26:24.260Z,100935.06
2023-02-19T11:29:28.790Z,100931.72
2023-02-19T11:32:32.393Z,100942.66
2023-02-19T11:35:36.428Z,100950.78
2023-02-19T11:38:39.137Z,100936.00
2023-02-19T11:42:12.424Z,100919.19
2023-02-19T11:45:30.956Z,100926.03
2023-02-19T11:48:57.010Z,100929.47
2023-02-19T11:52:15.949Z,100926.34
2023-02-19T11:55:40.701Z,100929.19
2023-02-19T11:59:00.493Z,100949.25
2023-02-19T12:02:32.091Z,100955.41
2023-02-19T12:05:49.535Z,100958.13
2023-02-19T12:09:17.960Z,100972.16
2023-02-19T12:12:33.289Z,100954.16
2023-02-19T12:16:02.332Z,100967.25
2023-02-19T12:19:30.475Z,100970.66
2023-02-19T12:22:38.311Z,100963.31
2023-02-19T12:25:56.016Z,100944.19
2023-02-19T12:29:18.744Z,100951.16
2023-02-19T12:32:38.962Z,100949.09
2023-02-19T12:35:52.018Z,100955.91
2023-02-19T12:39:03.281Z,100951.69
2023-02-19T12:42:12.649Z,100938.50
2023-02-19T12:45:21.571Z,100938.38
2023-02-19T12:48:30.734Z,100960.06
2023-02-19T12:51:40.478Z,100955.25
2023-02-19T12:54:47.313Z,100946.19
2023-02-19T12:57:52.486Z,100949.41
2023-02-19T13:00:59.670Z,100955.00
2023-02-19T13:04:19.291Z,100943.22
2023-02-19T13:07:27.313Z,100947.22
2023-02-19T13:10:34.741Z,100926.97
2023-02-19T13:13:44.789Z,100914.88
2023-02-19T13:16:53.781Z,100905.38
2023-02-19T13:20:03.515Z,100903.78
2023-02-19T13:23:32.103Z,100913.13
2023-02-19T13:27:00.808Z,100904.88
2023-02-19T13:30:21.424Z,100907.84
2023-02-19T13:33:42.148Z,100916.41
2023-02-19T13:36:48.307Z,100926.47
2023-02-19T13:39:53.378Z,100908.50
2023-02-19T13:42:58.510Z,100908.28
2023-02-19T13:46:06.483Z,100906.38
2023-02-19T13:49:38.417Z,100921.88
2023-02-19T13:52:42.442Z,100931.28
2023-02-19T13:55:52.623Z,100931.47
2023-02-19T13:58:58.210Z,100932.31
2023-02-19T14:02:23.027Z,100927.94
2023-02-19T14:05:59.845Z,100925.72
2023-02-19T14:09:03.055Z,100922.47
2023-02-19T14:12:20.796Z,100945.53
2023-02-19T14:15:44.713Z,100933.88
2023-02-19T14:18:50.440Z,100942.19
2023-02-19T14:21:53.181Z,100955.78
2023-02-19T14:24:57.516Z,100948.59
2023-02-19T14:28:03.488Z,100950.34
2023-02-19T14:31:23.848Z,100949.66
2023-02-19T14:34:27.991Z,100954.03
2023-02-19T14:37:31.087Z,100965.84
2023-02-19T14:40:41.525Z,100967.97
2023-02-19T14:43:45.544Z,100970.72
2023-02-19T14:46:59.960Z,100959.50
2023-02-19T14:50:08.600Z,100976.56
2023-02-19T14:53:14.487Z,100988.25
2023-02-19T14:56:22.272Z,100982.00
2023-02-19T14:59:28.404Z,100980.09
2023-02-19T15:02:32.820Z,100981.88
2023-02-19T15:05:38.514Z,100985.53
2023-02-19T15:08:45.024Z,100997.59
2023-02-19T15:11:48.023Z,100991.25
2023-02-19T15:14:54.044Z,100979.69
2023-02-19T15:17:59.126Z,100973.03
2023-02-19T15:21:05.917Z,100976.28
2023-02-19T15:24:08.959Z,100985.81
2023-02-19T15:27:17.883Z,100985.06
2023-02-19T15:30:24.601Z,100979.63
2023-02-19T15:33:28.759Z,100998.94
2023-02-19T15:36:35.473Z,100992.03
2023-02-19T15:39:41.011Z,100997.69
2023-02-19T15:42:47.620Z,101004.84
2023-02-19T15:45:51.967Z,101010.56
2023-02-19T15:49:02.122Z,101011.56
2023-02-19T15:52:11.715Z,101010.81
2023-02-19T15:55:30.703Z,101013.47
2023-02-19T15:58:40.345Z,101074.31
2023-02-19T16:01:43.602Z,101101.56
2023-02-19T16:04:46.775Z,101088.47
2023-02-19T16:08:07.621Z,101104.19
2023-02-19T16:11:29.477Z,101101.84
2023-02-19T16:14:34.081Z,101106.22
2023-02-19T16:17:36.855Z,101095.66
2023-02-19T16:20:39.525Z,101090.38
2023-02-19T16:23:44.838Z,101090.59
2023-02-19T16:26:47.595Z,101081.31
2023-02-19T16:29:52.494Z,101081.09
2023-02-19T16:33:20.510Z,101075.53
2023-02-19T16:36:29.433Z,101072.81
2023-02-19T16:39:33.526Z,101073.44
2023-02-19T16:42:36.929Z,101081.28
2023-02-19T16:45:42.102Z,101093.97
2023-02-19T16:48:44.892Z,101108.91
2023-02-19T16:51:48.314Z,101107.09
2023-02-19T16:54:52.313Z,101107.06
2023-02-19T16:57:55.378Z,101113.22
2023-02-19T17:00:58.409Z,101131.41
2023-02-19T17:04:04.747Z,101126.06
2023-02-19T17:07:07.529Z,101123.44
2023-02-19T17:10:14.073Z,101119.00
2023-02-19T17:13:16.716Z,101129.75
2023-02-19T17:16:21.951Z,101143.19
2023-02-19T17:19:24.736Z,101150.38
2023-02-19T17:22:27.429Z,101155.81
2023-02-19T17:25:31.433Z,101172.03
2023-02-19T17:28:34.647Z,101168.47
2023-02-19T17:31:37.365Z,101175.81
2023-02-19T17:34:40.013Z,101192.97
2023-02-19T17:37:43.463Z,101194.81
2023-02-19T17:40:47.469Z,101191.28
2023-02-19T17:43:50.484Z,101198.44
2023-02-19T17:46:53.222Z,101194.91
2023-02-19T17:49:56.717Z,101197.66
2023-02-19T17:53:00.004Z,101201.25
2023-02-19T17:56:05.447Z,101200.34
2023-02-19T17:59:08.133Z,101209.28
2023-02-19T18:02:10.789Z,101201.25
2023-02-19T18:05:13.957Z,101201.34
2023-02-19T18:08:16.716Z,101206.72
2023-02-19T18:11:22.143Z,101206.72
2023-02-19T18:14:24.850Z,101212.03
2023-02-19T18:17:27.927Z,101225.50
2023-02-19T18:20:31.504Z,101230.13
2023-02-19T18:23:34.197Z,101231.03
2023-02-19T18:26:38.321Z,101246.38
2023-02-19T18:29:40.971Z,101249.22
2023-02-19T18:32:43.855Z,101254.69
2023-02-19T18:35:47.428Z,101261.81
2023-02-19T18:38:50.737Z,101265.47
2023-02-19T18:41:54.725Z,101260.81
2023-02-19T18:44:57.704Z,101264.47
2023-02-19T18:48:00.375Z,101259.47
2023-02-19T18:51:03.748Z,101258.69
2023-02-19T18:54:07.839Z,101263.22
2023-02-19T18:57:11.852Z,101265.03
2023-02-19T19:00:20.146Z,101261.41
2023-02-19T19:03:22.912Z,101253.31
2023-02-19T19:06:25.609Z,101258.72
2023-02-19T19:09:28.586Z,101255.09
2023-02-19T19:12:32.664Z,101267.63
2023-02-19T19:15:35.927Z,101258.56
2023-02-19T19:18:39.049Z,101258.56
2023-02-19T19:21:41.746Z,101258.56
2023-02-19T19:24:44.441Z,101250.53
2023-02-19T19:27:50.780Z,101250.38
2023-02-19T19:30:53.477Z,101251.41
2023-02-19T19:33:56.507Z,101250.16
2023-02-19T19:36:59.287Z,101250.38
2023-02-19T19:40:04.126Z,101256.16
2023-02-19T19:43:08.109Z,101258.88
2023-02-19T19:46:11.196Z,101257.88
2023-02-19T19:49:17.941Z,101270.44
2023-02-19T19:52:20.931Z,101273.19
2023-02-19T19:55:24.152Z,101260.94
2023-02-19T19:58:28.233Z,101280.34
2023-02-19T20:01:30.890Z,101279.31
2023-02-19T20:04:33.721Z,101277.75
2023-02-19T20:07:36.639Z,101278.72
2023-02-19T20:10:39.368Z,101285.78
2023-02-19T20:13:43.449Z,101294.91
2023-02-19T20:16:47.488Z,101283.19
2023-02-19T20:19:50.185Z,101285.94
2023-02-19T20:22:53.140Z,101287.63
2023-02-19T20:25:57.679Z,101293.97
2023-02-19T20:29:04.289Z,101286.00
2023-02-19T20:32:07.152Z,101293.13
2023-02-19T20:35:10.517Z,101294.75
2023-02-19T20:38:15.453Z,101293.91
2023-02-19T20:41:18.130Z,101291.28
2023-02-19T20:44:22.208Z,101289.50
2023-02-19T20:47:24.852Z,101282.41
2023-02-19T20:50:27.598Z,101296.75
2023-02-19T20:53:31.846Z,101307.56
2023-02-19T20:56:34.569Z,101299.44
2023-02-19T20:59:38.835Z,101301.22
2023-02-19T21:02:42.599Z,101306.66
2023-02-19T21:05:45.314Z,101317.47
2023-02-19T21:08:48.794Z,101313.06
2023-02-19T21:11:53.061Z,101314.94
2023-02-19T21:14:57.125Z,101301.28
2023-02-19T21:17:59.791Z,101294.97
2023-02-19T21:21:03.095Z,101289.50
2023-02-19T21:24:06.575Z,101295.09
2023-02-19T21:27:09.582Z,101297.72
2023-02-19T21:30:14.117Z,101290.44
2023-02-19T21:33:16.968Z,101304.91
2023-02-19T21:36:19.880Z,101291.63
2023-02-19T21:39:24.974Z,101299.72
2023-02-19T21:42:28.836Z,101307.00
2023-02-19T21:45:32.913Z,101321.28
2023-02-19T21:48:35.620Z,101327.59
2023-02-19T21:51:40.116Z,101325.81
2023-02-19T21:54:42.798Z,101336.66
2023-02-19T21:57:45.513Z,101340.28
2023-02-19T22:00:49.560Z,101329.44
2023-02-19T22:03:52.692Z,101317.94
2023-02-19T22:06:56.827Z,101329.53
2023-02-19T22:09:59.509Z,101330.47
2023-02-19T22:13:02.265Z,101328.75
2023-02-19T22:16:07.114Z,101328.69
2023-02-19T22:19:12.071Z,101340.38
2023-02-19T22:22:15.179Z,101333.16
2023-02-19T22:25:17.923Z,101335.94
2023-02-19T22:28:20.594Z,101340.28
2023-02-19T22:31:26.487Z,101344.78
2023-02-19T22:34:29.201Z,101355.88
2023-02-19T22:37:31.866Z,101350.47
2023-02-19T22:40:34.561Z,101346.91
2023-02-19T22:43:37.439Z,101353.22
2023-02-19T22:46:48.099Z,101352.31
2023-02-19T22:49:51.268Z,101356.84
2023-02-19T22:52:54.932Z,101344.25
2023-02-19T22:55:57.556Z,101355.88
2023-02-19T22:59:00.280Z,101349.66
2023-02-19T23:02:04.910Z,101347.59
2023-02-19T23:05:07.885Z,101363.06
2023-02-19T23:08:10.513Z,101361.41
2023-02-19T23:11:13.879Z,101357.75
2023-02-19T23:14:18.588Z,101362.25
2023-02-19T23:17:22.573Z,101358.63
2023-02-19T23:20:25.262Z,101349.63
2023-02-19T23:23:27.925Z,101350.53
2023-02-19T23:26:30.645Z,101346.91
2023-02-19T23:29:33.322Z,101347.81
2023-02-19T23:32:37.299Z,101346.84
2023-02-19T23:35:39.978Z,101337.63
2023-02-19T23:38:45.309Z,101344.94
2023-02-19T23:41:48.859Z,101351.41
2023-02-19T23:44:51.559Z,101356.97
2023-02-19T23:47:55.617Z,101358.97
2023-02-19T23:50:58.538Z,101363.41
2023-02-19T23:54:02.213Z,101363.44
2023-02-19T23:57:05.076Z,101371.69
